Time;durP1;ratioP1;P1;durP2;ratioP2;P2;SDS_P1;SDS_P2;PMS_P1;PMS_P2;Temp;Humidity;BMP_temperature;BMP_pressure;BME280_temperature;BME280_humidity;BME280_pressure;Samples;Min_cycle;Max_cycle;Signal;HPM_P1;HPM_P2
2022/06/07 00:02:28;;;;;;;6.50;3.70;;;24.30;72.40;;;;;;221254;1265;22537;-60
2022/06/07 00:07:33;;;;;;;6.10;3.70;;;24.30;72.20;;;;;;221167;1265;22619;-58
2022/06/07 00:12:38;;;;;;;5.50;3.40;;;24.30;72.30;;;;;;221009;1265;24357;-59
2022/06/07 00:17:47;;;;;;;6.20;3.30;;;24.30;72.30;;;;;;220684;1267;22560;-58
2022/06/07 00:22:55;;;;;;;8.90;4.20;;;24.30;72.20;;;;;;221001;1265;24205;-58
2022/06/07 00:27:59;;;;;;;5.80;3.40;;;24.30;72.20;;;;;;221105;1265;22548;-60
2022/06/07 00:33:04;;;;;;;8.30;3.40;;;24.30;72.20;;;;;;221205;1265;22544;-59
2022/06/07 00:38:15;;;;;;;5.90;3.80;;;24.30;72.20;;;;;;220908;1265;22534;-57
2022/06/07 00:43:24;;;;;;;8.50;3.60;;;24.30;72.10;;;;;;221051;1265;22537;-60
2022/06/07 00:48:28;;;;;;;5.20;3.80;;;24.30;72.10;;;;;;220790;1265;22534;-60
2022/06/07 00:53:35;;;;;;;7.90;3.60;;;24.30;72.00;;;;;;220976;1268;22540;-60
2022/06/07 00:59:05;;;;;;;7.00;3.40;;;24.30;71.90;;;;;;220751;1265;24286;-59
2022/06/07 01:04:12;;;;;;;6.50;3.40;;;24.30;71.80;;;;;;221004;1265;25300;-58
2022/06/07 01:14:40;;;;;;;6.20;3.90;;;24.30;71.70;;;;;;220759;1265;22779;-59
2022/06/07 01:19:46;;;;;;;7.10;3.40;;;24.20;71.70;;;;;;220653;1266;22540;-60
2022/06/07 01:24:52;;;;;;;5.10;3.20;;;24.30;71.70;;;;;;220873;1265;25446;-58
2022/06/07 01:30:04;;;;;;;5.30;3.50;;;24.30;71.90;;;;;;220592;1265;25218;-60
2022/06/07 01:35:08;;;;;;;6.90;3.40;;;24.20;71.50;;;;;;220701;1267;22662;-59
2022/06/07 01:45:37;;;;;;;4.70;3.00;;;24.20;71.80;;;;;;220579;1267;22551;-59
2022/06/07 01:50:42;;;;;;;10.70;4.60;;;24.20;71.50;;;;;;220407;1267;25363;-58
2022/06/07 01:55:46;;;;;;;7.50;3.50;;;24.30;71.30;;;;;;220485;1267;24080;-59
2022/06/07 02:00:54;;;;;;;4.10;2.90;;;24.20;71.70;;;;;;220361;1265;22540;-59
2022/06/07 02:06:00;;;;;;;5.10;3.70;;;24.20;71.30;;;;;;220785;1265;25460;-59
2022/06/07 02:11:08;;;;;;;4.60;3.20;;;24.20;71.60;;;;;;221012;1265;24447;-60
2022/06/07 02:16:20;;;;;;;7.00;3.40;;;24.20;71.10;;;;;;220705;1265;24231;-59
2022/06/07 02:21:36;;;;;;;4.40;3.10;;;24.20;71.10;;;;;;220761;1265;24435;-60
2022/06/07 02:27:16;;;;;;;4.50;3.00;;;24.20;71.10;;;;;;220389;1265;23900;-60
2022/06/07 02:32:25;;;;;;;6.10;3.30;;;24.20;71.30;;;;;;220332;1267;22624;-59
2022/06/07 02:37:33;;;;;;;5.30;2.90;;;24.20;71.10;;;;;;220652;1265;22551;-57
2022/06/07 02:42:38;;;;;;;4.40;2.90;;;24.20;71.00;;;;;;220630;1265;22544;-61
2022/06/07 02:47:43;;;;;;;3.50;2.70;;;24.20;70.80;;;;;;220895;1265;24297;-60
2022/06/07 02:52:50;;;;;;;6.40;3.50;;;24.10;70.40;;;;;;220776;1265;24147;-59
2022/06/07 02:57:59;;;;;;;5.00;3.20;;;24.10;71.10;;;;;;220502;1265;24322;-63
2022/06/07 03:03:04;;;;;;;3.80;3.00;;;24.10;70.80;;;;;;221064;1265;22533;-58
2022/06/07 03:08:10;;;;;;;4.80;2.70;;;24.10;70.80;;;;;;220754;1265;24191;-60
2022/06/07 03:13:15;;;;;;;3.60;2.80;;;24.10;70.70;;;;;;221173;1265;22550;-59
2022/06/07 03:18:20;;;;;;;3.70;2.60;;;24.10;70.80;;;;;;221031;1265;24271;-61
2022/06/07 03:23:25;;;;;;;6.00;3.30;;;24.10;71.10;;;;;;220842;1265;22547;-60
2022/06/07 03:28:33;;;;;;;4.80;3.00;;;24.10;70.80;;;;;;220985;1265;25425;-59
2022/06/07 03:33:39;;;;;;;4.00;3.20;;;24.10;71.10;;;;;;221000;1265;24586;-59
2022/06/07 03:38:44;;;;;;;4.00;2.70;;;24.10;70.50;;;;;;220866;1265;25340;-58
2022/06/07 03:43:50;;;;;;;5.10;2.90;;;24.10;70.60;;;;;;220921;1265;25241;-61
2022/06/07 03:48:55;;;;;;;4.10;3.00;;;24.10;70.00;;;;;;220964;1265;24415;-60
2022/06/07 03:54:02;;;;;;;4.10;2.70;;;24.10;70.80;;;;;;220526;1267;22539;-59
2022/06/07 03:59:07;;;;;;;4.00;3.00;;;24.10;70.50;;;;;;220678;1265;22772;-60
2022/06/07 04:04:11;;;;;;;5.40;3.30;;;24.10;70.40;;;;;;220865;1267;25434;-59
2022/06/07 04:09:16;;;;;;;5.30;2.90;;;24.10;70.40;;;;;;220959;1265;22545;-62
2022/06/07 04:14:21;;;;;;;4.50;3.00;;;24.10;70.00;;;;;;220427;1267;22611;-61
2022/06/07 04:19:26;;;;;;;3.70;2.70;;;24.10;70.60;;;;;;220756;1267;22556;-60
2022/06/07 04:24:31;;;;;;;3.60;2.50;;;24.10;70.30;;;;;;221165;1265;25262;-59
2022/06/07 04:29:36;;;;;;;3.10;2.60;;;24.10;70.30;;;;;;220612;1267;22691;-61
2022/06/07 04:34:46;;;;;;;3.80;3.00;;;24.10;70.20;;;;;;220642;1267;22608;-59
2022/06/07 04:39:50;;;;;;;3.10;2.40;;;24.10;70.10;;;;;;221112;1265;22647;-58
2022/06/07 04:44:54;;;;;;;3.90;2.70;;;24.10;70.10;;;;;;221189;1264;22522;-61
2022/06/07 04:50:09;;;;;;;6.60;3.30;;;24.10;70.00;;;;;;220731;1265;22525;-59
2022/06/07 04:55:15;;;;;;;4.50;2.80;;;24.10;70.10;;;;;;220604;1267;22729;-60
2022/06/07 05:00:19;;;;;;;3.20;2.70;;;24.10;70.10;;;;;;220788;1265;24696;-60
2022/06/07 05:05:30;;;;;;;4.20;2.70;;;24.20;70.60;;;;;;220798;1264;25349;-59
2022/06/07 05:10:40;;;;;;;3.60;2.40;;;24.10;70.20;;;;;;220976;1265;22610;-61
2022/06/07 05:15:53;;;;;;;4.10;2.60;;;24.10;69.50;;;;;;220836;1265;24300;-61
2022/06/07 05:20:58;;;;;;;3.30;2.20;;;24.20;69.90;;;;;;221009;1265;22526;-59
2022/06/07 05:26:07;;;;;;;3.80;2.70;;;24.20;69.80;;;;;;221037;1265;22550;-58
2022/06/07 05:31:12;;;;;;;3.30;2.50;;;24.20;69.70;;;;;;220808;1265;22791;-60
2022/06/07 05:36:21;;;;;;;5.70;2.70;;;24.20;69.60;;;;;;221042;1265;22541;-59
2022/06/07 05:41:29;;;;;;;5.80;2.70;;;24.20;69.50;;;;;;220990;1267;25401;-59
2022/06/07 05:46:37;;;;;;;3.70;2.70;;;24.30;69.90;;;;;;220706;1265;24335;-60
2022/06/07 05:51:52;;;;;;;4.60;2.70;;;24.20;69.70;;;;;;220870;1265;24415;-59
2022/06/07 05:56:57;;;;;;;5.10;3.20;;;24.30;70.30;;;;;;221079;1267;22692;-59
2022/06/07 06:02:01;;;;;;;6.50;3.60;;;24.30;70.30;;;;;;220619;1268;22726;-59
2022/06/07 06:07:11;;;;;;;22.70;3.40;;;24.40;70.00;;;;;;220554;1267;22530;-59
2022/06/07 06:12:21;;;;;;;6.80;3.10;;;24.50;69.80;;;;;;220665;1266;25120;-60
2022/06/07 06:17:47;;;;;;;5.80;2.60;;;24.50;69.90;;;;;;220500;1267;22617;-60
2022/06/07 06:23:17;;;;;;;4.30;2.60;;;24.60;69.90;;;;;;220838;1265;25283;-59
2022/06/07 06:28:25;;;;;;;6.50;2.40;;;24.60;69.80;;;;;;220995;1268;23165;-60
2022/06/07 06:33:29;;;;;;;10.80;3.10;;;24.60;69.40;;;;;;220567;1267;26570;-60
2022/06/07 06:38:34;;;;;;;7.00;2.60;;;24.70;69.20;;;;;;221018;1265;25225;-59
2022/06/07 06:43:39;;;;;;;7.70;3.00;;;24.70;69.30;;;;;;221176;1265;24247;-60
2022/06/07 06:48:54;;;;;;;5.90;2.80;;;24.70;69.50;;;;;;221095;1265;22551;-58
2022/06/07 06:54:01;;;;;;;8.10;3.10;;;24.70;68.80;;;;;;220971;1265;333048;-59
2022/06/07 06:59:12;;;;;;;7.60;2.90;;;24.70;68.60;;;;;;220696;1265;22522;-57
2022/06/07 07:04:20;;;;;;;10.00;2.80;;;24.70;68.40;;;;;;220761;1265;25323;-58
2022/06/07 07:09:28;;;;;;;5.70;3.00;;;24.70;68.20;;;;;;220683;1265;24231;-59
2022/06/07 07:14:38;;;;;;;7.60;3.60;;;24.70;67.70;;;;;;221045;1265;23931;-59
2022/06/07 07:19:46;;;;;;;6.90;2.70;;;24.70;67.60;;;;;;221058;1265;25379;-59
2022/06/07 07:24:53;;;;;;;5.70;3.50;;;24.70;66.70;;;;;;220979;1265;24199;-59
2022/06/07 07:29:59;;;;;;;7.10;3.80;;;24.80;67.00;;;;;;220906;1264;24677;-60
2022/06/07 07:35:04;;;;;;;7.00;3.70;;;24.80;66.70;;;;;;220937;1265;25216;-59
2022/06/07 07:40:15;;;;;;;3.70;2.90;;;24.80;66.40;;;;;;220712;1265;22538;-61
2022/06/07 07:45:20;;;;;;;6.90;3.00;;;24.80;66.20;;;;;;220821;1267;22567;-60
2022/06/07 07:50:26;;;;;;;5.60;3.20;;;24.80;66.10;;;;;;220851;1267;22548;-58
2022/06/07 07:55:33;;;;;;;4.50;2.70;;;24.80;65.90;;;;;;220670;1268;22526;-61
2022/06/07 08:00:51;;;;;;;4.00;3.10;;;24.80;65.70;;;;;;220881;1267;22648;-60
2022/06/07 08:05:57;;;;;;;5.80;2.90;;;24.90;65.70;;;;;;220973;1265;25248;-62
2022/06/07 08:11:02;;;;;;;6.80;3.10;;;24.80;65.50;;;;;;220885;1265;22692;-60
2022/06/07 08:16:13;;;;;;;4.90;2.70;;;24.90;65.60;;;;;;220354;1267;23963;-59
2022/06/07 08:21:21;;;;;;;5.40;3.00;;;24.90;66.20;;;;;;220949;1265;22546;-61
2022/06/07 08:26:26;;;;;;;4.80;3.20;;;24.90;65.70;;;;;;220934;1268;22528;-61
2022/06/07 08:31:32;;;;;;;3.50;2.80;;;24.90;65.50;;;;;;220800;1265;22642;-60
2022/06/07 08:41:59;;;;;;;4.40;2.60;;;24.90;64.80;;;;;;220623;1265;25280;-60
2022/06/07 08:47:28;;;;;;;3.90;2.70;;;25.00;65.00;;;;;;220846;1265;24216;-60
2022/06/07 08:52:36;;;;;;;3.60;2.40;;;25.00;64.80;;;;;;220587;1267;22599;-60
2022/06/07 08:57:42;;;;;;;3.90;2.40;;;25.10;64.50;;;;;;220863;1265;25310;-59
2022/06/07 09:03:17;;;;;;;4.30;3.10;;;25.10;64.20;;;;;;220744;1267;25284;-59
2022/06/07 09:08:25;;;;;;;4.00;2.80;;;25.10;64.20;;;;;;220937;1268;24217;-60
2022/06/07 09:13:28;;;;;;;7.20;3.00;;;25.00;63.70;;;;;;221084;1265;25220;-61
2022/06/07 09:18:33;;;;;;;5.30;3.10;;;25.10;63.60;;;;;;220664;1265;25288;-58
2022/06/07 09:23:45;;;;;;;2.80;2.40;;;25.10;63.70;;;;;;220781;1264;22591;-60
2022/06/07 09:28:49;;;;;;;4.30;2.80;;;25.10;63.20;;;;;;220819;1267;22540;-60
2022/06/07 09:33:57;;;;;;;3.80;2.70;;;25.10;63.00;;;;;;221020;1268;24292;-60
2022/06/07 09:39:08;;;;;;;3.30;2.80;;;25.20;63.00;;;;;;220682;1268;25290;-57
2022/06/07 09:44:11;;;;;;;;;;;25.20;62.90;;;;;;220566;1267;22548;-61
2022/06/07 09:49:30;;;;;;;3.30;2.50;;;25.20;62.90;;;;;;221122;1268;24055;-60
2022/06/07 09:54:40;;;;;;;3.60;2.70;;;25.20;63.10;;;;;;221033;1268;25239;-59
2022/06/07 10:00:10;;;;;;;3.70;2.50;;;25.20;62.60;;;;;;220695;1268;22535;-58
2022/06/07 10:05:21;;;;;;;3.50;2.60;;;25.20;62.70;;;;;;220453;1266;24212;-57
2022/06/07 10:10:40;;;;;;;3.30;2.60;;;25.30;62.60;;;;;;221034;1268;25006;-60
2022/06/07 10:15:52;;;;;;;3.20;2.40;;;25.30;62.10;;;;;;220823;1267;22532;-60
2022/06/07 10:21:02;;;;;;;3.70;2.50;;;25.30;61.90;;;;;;220739;1267;25299;-60
2022/06/07 10:26:27;;;;;;;4.20;2.70;;;25.40;62.30;;;;;;220927;1267;22586;-58
2022/06/07 10:31:54;;;;;;;3.50;2.90;;;25.40;61.80;;;;;;220696;1267;22688;-58
2022/06/07 10:37:35;;;;;;;3.30;2.70;;;25.40;61.60;;;;;;220480;1267;22612;-59
2022/06/07 10:43:08;;;;;;;3.40;2.60;;;25.40;61.50;;;;;;221031;1265;24383;-59
2022/06/07 10:48:19;;;;;;;2.90;2.40;;;25.40;61.30;;;;;;221118;1265;25232;-59
2022/06/07 10:53:33;;;;;;;5.40;2.50;;;25.40;61.10;;;;;;221002;1265;24472;-60
2022/06/07 10:58:42;;;;;;;3.50;2.70;;;25.40;61.00;;;;;;221081;1265;22548;-60
2022/06/07 11:03:58;;;;;;;2.80;2.20;;;25.40;60.80;;;;;;221019;1265;22640;-59
2022/06/07 11:09:33;;;;;;;2.50;2.30;;;25.50;61.20;;;;;;221097;1265;22752;-57
2022/06/07 11:15:00;;;;;;;3.70;2.60;;;25.50;60.70;;;;;;220964;1265;25389;-60
2022/06/07 11:20:15;;;;;;;3.60;2.40;;;25.50;61.00;;;;;;221072;1265;25227;-59
2022/06/07 11:25:30;;;;;;;2.80;2.20;;;25.50;60.50;;;;;;220986;1265;23558;-59
2022/06/07 11:30:34;;;;;;;3.10;2.20;;;25.50;60.70;;;;;;220978;1265;22554;-59
2022/06/07 11:35:51;;;;;;;3.70;2.80;;;25.50;60.20;;;;;;220928;1265;25235;-59
2022/06/07 11:41:38;;;;;;;3.00;2.40;;;25.60;60.20;;;;;;221097;1265;25229;-59
2022/06/07 11:46:50;;;;;;;3.20;2.40;;;25.60;60.10;;;;;;221048;1265;22525;-62
2022/06/07 11:52:19;;;;;;;3.00;2.50;;;25.60;60.00;;;;;;220940;1265;25309;-59
2022/06/07 11:57:38;;;;;;;2.80;2.30;;;25.60;60.00;;;;;;221089;1265;24289;-60
2022/06/07 12:03:05;;;;;;;6.30;2.60;;;25.60;59.90;;;;;;221065;1265;22812;-59
2022/06/07 12:08:14;;;;;;;3.50;2.50;;;25.60;60.10;;;;;;221319;1265;24253;-59
2022/06/07 12:18:51;;;;;;;3.20;2.30;;;25.60;60.00;;;;;;221260;1265;25291;-59
2022/06/07 12:24:12;;;;;;;4.50;2.70;;;25.60;60.20;;;;;;221128;1265;22649;-59
2022/06/07 12:29:26;;;;;;;2.90;2.30;;;25.50;59.50;;;;;;220899;1265;22984;-60
2022/06/07 12:34:36;;;;;;;3.00;2.30;;;25.50;59.50;;;;;;220778;1265;22684;-60
2022/06/07 12:39:49;;;;;;;3.00;2.30;;;25.50;59.30;;;;;;220999;1265;22547;-61
2022/06/07 12:44:59;;;;;;;4.30;2.50;;;25.50;59.30;;;;;;220895;1265;22695;-60
2022/06/07 12:50:16;;;;;;;;;;;25.50;59.20;;;;;;221036;1265;24205;-59
2022/06/07 12:55:27;;;;;;;2.90;2.40;;;25.40;59.50;;;;;;220757;1268;25365;-57
2022/06/07 13:00:41;;;;;;;3.50;2.50;;;25.40;59.40;;;;;;220744;1265;22540;-57
2022/06/07 13:05:45;;;;;;;2.90;2.30;;;25.40;59.20;;;;;;221042;1265;24407;-60
2022/06/07 13:10:50;;;;;;;3.60;2.20;;;25.40;59.30;;;;;;221252;1265;22730;-57
2022/06/07 13:16:01;;;;;;;3.80;2.50;;;25.40;59.30;;;;;;220892;1265;26549;-58
2022/06/07 13:21:19;;;;;;;2.80;2.30;;;25.40;59.70;;;;;;221003;1265;25584;-59
2022/06/07 13:26:40;;;;;;;3.30;2.20;;;25.40;59.80;;;;;;220485;1268;23425;-58
2022/06/07 13:31:49;;;;;;;3.10;2.40;;;25.40;59.60;;;;;;220848;1268;24218;-58
2022/06/07 13:37:11;;;;;;;3.60;2.50;;;25.40;59.70;;;;;;221307;1265;22573;-59
2022/06/07 13:42:26;;;;;;;3.50;2.70;;;25.40;59.90;;;;;;221280;1265;25330;-60
2022/06/07 13:47:37;;;;;;;4.20;2.10;;;25.40;60.60;;;;;;220961;1265;23029;-60
2022/06/07 13:58:03;;;;;;;5.40;2.80;;;25.30;60.20;;;;;;221093;1265;24199;-59
2022/06/07 14:03:30;;;;;;;4.90;2.90;;;25.30;60.10;;;;;;220865;1265;22573;-60
2022/06/07 14:08:38;;;;;;;4.40;2.50;;;25.30;60.20;;;;;;221297;1265;22547;-61
2022/06/07 14:13:42;;;;;;;3.50;2.30;;;25.30;60.30;;;;;;221137;1265;24364;-59
2022/06/07 14:18:46;;;;;;;5.70;2.40;;;25.30;60.30;;;;;;221183;1265;22545;-59
2022/06/07 14:23:51;;;;;;;4.20;2.80;;;25.30;60.50;;;;;;221067;1265;22700;-59
2022/06/07 14:28:55;;;;;;;5.60;2.60;;;25.20;60.40;;;;;;220783;1265;25246;-59
2022/06/07 14:33:59;;;;;;;6.10;3.00;;;25.20;60.50;;;;;;221227;1265;22547;-60
2022/06/07 14:39:16;;;;;;;5.70;2.80;;;25.20;60.60;;;;;;221079;1265;22529;-61
2022/06/07 14:44:28;;;;;;;3.80;2.10;;;25.20;60.70;;;;;;221117;1265;22549;-63
2022/06/07 14:49:35;;;;;;;4.00;2.40;;;25.20;60.70;;;;;;220931;1265;24200;-59
2022/06/07 14:54:42;;;;;;;8.30;2.40;;;25.20;60.70;;;;;;220548;1269;24293;-59
2022/06/07 14:59:46;;;;;;;8.90;3.30;;;25.20;61.10;;;;;;221056;1270;25295;-57
2022/06/07 15:05:13;;;;;;;7.00;3.00;;;25.20;61.40;;;;;;220791;1265;24428;-58
2022/06/07 15:10:21;;;;;;;8.50;2.90;;;25.20;61.10;;;;;;220808;1265;26536;-53
2022/06/07 15:15:26;;;;;;;6.30;3.10;;;25.20;61.70;;;;;;220415;1268;22531;-60
2022/06/07 15:20:37;;;;;;;8.20;2.20;;;25.20;62.00;;;;;;220414;1268;24046;-59
2022/06/07 15:25:40;;;;;;;4.50;2.40;;;25.30;63.40;;;;;;220797;1265;24212;-59
2022/06/07 15:30:45;;;;;;;8.50;3.10;;;25.40;66.80;;;;;;220903;1265;22683;-59
2022/06/07 15:35:50;;;;;;;9.50;2.70;;;25.40;63.40;;;;;;220640;1268;24463;-59
2022/06/07 15:40:54;;;;;;;11.00;3.40;;;25.40;66.10;;;;;;220928;1265;22528;-59
2022/06/07 15:45:57;;;;;;;12.60;2.70;;;25.50;66.80;;;;;;220867;1265;25561;-59
2022/06/07 15:51:03;;;;;;;8.00;2.80;;;25.60;67.90;;;;;;220657;1268;22637;-59
2022/06/07 15:56:09;;;;;;;13.60;2.70;;;25.60;68.50;;;;;;220829;1268;24268;-62
2022/06/07 16:01:16;;;;;;;6.30;2.80;;;25.70;68.70;;;;;;220731;1268;22553;-57
2022/06/07 16:06:24;;;;;;;7.90;2.90;;;25.70;68.70;;;;;;220838;1265;24398;-60
2022/06/07 16:11:28;;;;;;;7.80;3.60;;;25.70;67.90;;;;;;220896;1265;25300;-60
2022/06/07 16:16:42;;;;;;;9.20;2.90;;;25.70;67.40;;;;;;220597;1265;25375;-57
2022/06/07 16:21:46;;;;;;;11.00;3.10;;;25.60;67.60;;;;;;222397;1265;22521;-60
2022/06/07 16:26:49;;;;;;;6.70;2.80;;;25.60;67.00;;;;;;220898;1265;22535;-58
2022/06/07 16:33:18;;;;;;;7.50;2.80;;;25.60;66.70;;;;;;220966;1265;25393;-59
2022/06/07 16:37:35;;;;;;;4.00;2.50;;;25.50;66.80;;;;;;220833;1265;24208;-60
2022/06/07 16:42:40;;;;;;;7.20;3.60;;;25.50;65.70;;;;;;221106;1265;22541;-59
2022/06/07 16:47:44;;;;;;;5.80;2.80;;;25.50;65.80;;;;;;220920;1265;22544;-60
2022/06/07 16:53:07;;;;;;;;;;;25.40;65.40;;;;;;221114;1265;24266;-58
2022/06/07 16:58:21;;;;;;;7.90;2.70;;;25.40;65.30;;;;;;221120;1265;25395;-60
2022/06/07 17:03:25;;;;;;;7.60;3.00;;;25.40;65.50;;;;;;221146;1265;22736;-61
2022/06/07 17:08:32;;;;;;;7.40;2.40;;;25.40;64.80;;;;;;221265;1265;24212;-59
2022/06/07 17:13:36;;;;;;;7.00;2.20;;;25.40;64.90;;;;;;220801;1267;22618;-64
2022/06/07 17:18:43;;;;;;;8.20;2.60;;;25.40;65.20;;;;;;220977;1265;22678;-59
2022/06/07 17:23:47;;;;;;;9.70;2.90;;;25.50;66.10;;;;;;221070;1265;24259;-62
2022/06/07 17:28:53;;;;;;;12.00;3.00;;;25.50;66.70;;;;;;221119;1265;22551;-61
2022/06/07 17:33:58;;;;;;;6.20;2.70;;;25.50;66.50;;;;;;220993;1265;22547;-62
2022/06/07 17:39:08;;;;;;;9.90;3.10;;;25.50;66.20;;;;;;221044;1267;22548;-60
2022/06/07 17:44:24;;;;;;;11.00;3.40;;;25.50;65.90;;;;;;221021;1265;24245;-60
2022/06/07 17:50:01;;;;;;;14.00;3.30;;;25.50;65.90;;;;;;221005;1265;24397;-58
2022/06/07 17:55:16;;;;;;;14.30;3.10;;;25.50;65.90;;;;;;220903;1265;22546;-61
2022/06/07 18:00:56;;;;;;;17.50;4.30;;;25.50;65.40;;;;;;220946;1265;25292;-59
2022/06/07 18:06:26;;;;;;;23.80;4.20;;;25.50;65.00;;;;;;221009;1265;22713;-61
2022/06/07 18:11:40;;;;;;;23.20;4.20;;;25.50;65.50;;;;;;221008;1265;25624;-61
2022/06/07 18:16:46;;;;;;;14.70;4.50;;;25.50;65.30;;;;;;221008;1268;22756;-60
2022/06/07 18:21:51;;;;;;;12.50;4.00;;;25.60;65.60;;;;;;220860;1265;22541;-61
2022/06/07 18:26:54;;;;;;;19.70;5.60;;;25.60;65.30;;;;;;220794;1267;22530;-57
2022/06/07 18:31:58;;;;;;;22.10;4.80;;;25.60;65.20;;;;;;221219;1265;24290;-58
2022/06/07 18:37:03;;;;;;;17.00;4.50;;;25.60;65.30;;;;;;220924;1265;23945;-59
2022/06/07 18:42:08;;;;;;;11.80;4.90;;;25.60;65.30;;;;;;220844;1267;22524;-62
2022/06/07 18:47:24;;;;;;;19.60;3.80;;;25.50;65.00;;;;;;220508;1265;25235;-58
2022/06/07 18:52:32;;;;;;;9.90;3.90;;;25.40;64.90;;;;;;220655;1265;296384;-59
2022/06/07 18:57:43;;;;;;;14.30;3.70;;;25.40;64.50;;;;;;220960;1265;25464;-64
2022/06/07 19:02:53;;;;;;;14.60;3.60;;;25.30;64.90;;;;;;221019;1265;22538;-60
2022/06/07 19:08:00;;;;;;;9.40;4.20;;;25.20;64.90;;;;;;220970;1265;22655;-60
2022/06/07 19:13:07;;;;;;;11.20;3.60;;;25.20;65.20;;;;;;221160;1265;25271;-59
2022/06/07 19:18:26;;;;;;;7.80;3.40;;;25.10;63.90;;;;;;220961;1265;22748;-58
2022/06/07 19:23:33;;;;;;;7.10;3.30;;;25.00;64.20;;;;;;221000;1265;22560;-58
2022/06/07 19:28:42;;;;;;;34.70;4.30;;;24.90;64.20;;;;;;220808;1265;24498;-53
2022/06/07 19:33:51;;;;;;;9.90;3.30;;;24.80;64.70;;;;;;220946;1268;24302;-59
2022/06/07 19:38:56;;;;;;;6.70;2.80;;;24.80;64.40;;;;;;221012;1265;22560;-59
2022/06/07 19:44:01;;;;;;;6.70;2.50;;;24.80;64.30;;;;;;220920;1265;24386;-60
2022/06/07 19:49:08;;;;;;;6.30;2.70;;;24.70;64.50;;;;;;220786;1265;25244;-53
2022/06/07 19:54:12;;;;;;;5.50;3.20;;;24.80;64.60;;;;;;221012;1265;24405;-55
2022/06/07 19:59:19;;;;;;;9.60;3.00;;;24.90;64.30;;;;;;220506;1265;22628;-60
2022/06/07 20:04:26;;;;;;;5.40;2.50;;;24.90;64.10;;;;;;220824;1265;22537;-57
2022/06/07 20:09:29;;;;;;;8.00;3.10;;;25.00;64.10;;;;;;220985;1264;24302;-60
2022/06/07 20:14:35;;;;;;;4.60;2.40;;;25.00;63.60;;;;;;220915;1265;22568;-59
2022/06/07 20:19:42;;;;;;;5.20;2.60;;;25.00;63.50;;;;;;221037;1265;23822;-59
2022/06/07 20:24:46;;;;;;;6.40;3.10;;;24.90;63.50;;;;;;220997;1265;22571;-59
2022/06/07 20:29:50;;;;;;;8.50;2.90;;;24.90;64.00;;;;;;220722;1265;24324;-59
2022/06/07 20:34:57;;;;;;;7.10;3.00;;;24.90;63.80;;;;;;220949;1264;25385;-59
2022/06/07 20:40:26;;;;;;;6.50;2.80;;;25.00;63.80;;;;;;220519;1264;22547;-54
2022/06/07 20:45:56;;;;;;;5.20;3.20;;;24.90;63.70;;;;;;220674;1265;23026;-55
2022/06/07 20:51:05;;;;;;;5.60;2.60;;;24.90;63.50;;;;;;220553;1265;22549;-59
2022/06/07 20:56:12;;;;;;;5.40;2.30;;;24.90;63.40;;;;;;220618;1265;22691;-55
2022/06/07 21:01:17;;;;;;;5.10;2.80;;;24.90;63.40;;;;;;220605;1265;23848;-59
2022/06/07 21:06:22;;;;;;;4.20;2.70;;;24.90;63.30;;;;;;220816;1265;22525;-59
2022/06/07 21:11:26;;;;;;;4.60;2.70;;;24.90;63.30;;;;;;220655;1265;25283;-59
2022/06/07 21:16:30;;;;;;;9.10;3.10;;;24.90;62.90;;;;;;220548;1265;23296;-58
2022/06/07 21:21:34;;;;;;;3.30;2.40;;;24.90;63.10;;;;;;220828;1265;22555;-58
2022/06/07 21:26:38;;;;;;;4.50;2.40;;;24.90;63.30;;;;;;220578;1265;27448;-58
2022/06/07 21:31:42;;;;;;;5.80;2.70;;;24.90;62.80;;;;;;220323;1267;22536;-58
2022/06/07 21:36:57;;;;;;;5.30;2.70;;;24.90;63.20;;;;;;220957;1264;22779;-57
2022/06/07 21:42:06;;;;;;;4.50;2.70;;;24.90;63.30;;;;;;221022;1265;23194;-58
2022/06/07 21:47:10;;;;;;;6.30;3.10;;;24.90;63.20;;;;;;220916;1264;22723;-58
2022/06/07 21:52:14;;;;;;;4.30;2.50;;;24.90;63.20;;;;;;220482;1265;22535;-59
2022/06/07 21:57:17;;;;;;;4.90;2.40;;;24.90;63.40;;;;;;220673;1265;22685;-60
2022/06/07 22:02:21;;;;;;;6.30;2.60;;;24.90;64.70;;;;;;220606;1265;23922;-58
2022/06/07 22:07:25;;;;;;;5.00;2.50;;;24.90;64.80;;;;;;220840;1265;22532;-58
2022/06/07 22:12:30;;;;;;;9.80;2.90;;;24.90;64.40;;;;;;221281;1265;24282;-59
2022/06/07 22:17:38;;;;;;;4.40;2.30;;;24.90;64.80;;;;;;221106;1265;24447;-59
2022/06/07 22:22:42;;;;;;;6.80;2.30;;;24.90;65.50;;;;;;220874;1265;25235;-58
2022/06/07 22:27:47;;;;;;;6.40;2.60;;;24.90;65.90;;;;;;220551;1267;22554;-63
2022/06/07 22:32:59;;;;;;;6.40;2.60;;;24.90;65.70;;;;;;221008;1265;22548;-59
2022/06/07 22:38:03;;;;;;;8.00;3.60;;;24.90;65.10;;;;;;220460;1266;22585;-60
2022/06/07 22:43:07;;;;;;;5.00;2.30;;;24.90;65.20;;;;;;221169;1264;25763;-59
2022/06/07 22:48:11;;;;;;;4.40;2.30;;;24.90;65.50;;;;;;221253;1265;26290;-56
2022/06/07 22:53:27;;;;;;;3.30;2.40;;;24.90;65.20;;;;;;221128;1265;25414;-60
2022/06/07 22:59:23;;;;;;;3.50;2.30;;;24.90;65.30;;;;;;221035;1265;24249;-59
2022/06/07 23:04:56;;;;;;;3.30;2.40;;;24.90;65.50;;;;;;220734;1267;22564;-62
2022/06/07 23:10:04;;;;;;;3.70;2.50;;;24.90;65.40;;;;;;220933;1265;25229;-58
2022/06/07 23:20:33;;;;;;;6.90;2.90;;;24.90;65.20;;;;;;220586;1265;22522;-60
2022/06/07 23:25:36;;;;;;;4.00;2.20;;;24.90;65.60;;;;;;220686;1265;22682;-60
2022/06/07 23:30:40;;;;;;;6.10;2.40;;;24.90;65.60;;;;;;221089;1265;26497;-60
2022/06/07 23:35:44;;;;;;;5.10;2.20;;;24.90;65.20;;;;;;220865;1265;22602;-59
2022/06/07 23:40:48;;;;;;;4.60;2.20;;;24.80;65.60;;;;;;220847;1268;22790;-58
2022/06/07 23:46:00;;;;;;;4.80;2.40;;;24.80;65.80;;;;;;220984;1265;22682;-60
2022/06/07 23:51:11;;;;;;;3.60;2.10;;;24.80;65.60;;;;;;221265;1265;22987;-58
2022/06/07 23:56:16;;;;;;;3.00;1.90;;;24.90;65.60;;;;;;221019;1265;24259;-59
